Parkway, Georgia
Current Conditions -  °F | °C
As of 2:53 PM on Sunday 21 Dec 2014 (Local Time) from KPDK Reporting Station
Haze Haze  
Wind Chill: 45°   Ceiling: 800
Heat Index: 48°   Visibility: 5mi
Dew Point: 43°   Wind: 7mph
Humidity: 83%   Direction: 110°ESE
Pressure: 30.12"   Gusts: NA
Location:  33.9742°N, 84.235°W
Report Text: KPDK 211953Z 11006KT 5SM HZ OVC008 09/06 A3012 RMK AO2 SLP204 T00890061 $
Loading
Personal Weather Stations






























Interactive Weather Map New forecast layout! Learn more

10-Day Weather Forecast

Advertisements
Track Severe Weather on mobile